• Join FlightAware (Why Join?)
  • Login
  • US Flag 
 
08:45PM EST


 

Airport Tracker/Info


-or-


 

Live Flight TrackerFlight Track Log ✈ SWA2278 ✈ 09-Apr-2013 ✈ KHOU - KBNA

Flight Track Log - Related Links

Times and Time Zones

All times are in EDT time to prevent confusion due to time zone crossing. See the SWA2278 flight status page for this flight to view local times or setup timezone preferences in your user account.

Time Position Orientation Groundspeed Altitude Reporting Facility
EDT Latitude Longitude Course Direction KTS MPH feet Rate Location/Type
11:44AM 29.6356 -95.2675 96° East 149 171 600  Level Houston Center
11:44AM 29.6342 -95.2514 96° East 199 229 1,700 2,100 Climbing Houston Center
11:45AM 29.6842 -95.2494 North 278 320 3,200 2,100 Climbing Houston Center
11:45AM 29.6981 -95.2539 344° North 267 307 3,900 2,700 Climbing Houston Center
11:46AM 29.7775 -95.2661 352° North 292 336 6,900 3,240 Climbing Houston Center
11:47AM 29.8761 -95.2636 North 295 339 10,600 2,220 Climbing Houston Center
11:48AM 29.9622 -95.2547 North 336 387 11,500 1,620 Climbing Houston Center
11:49AM 30.0553 -95.1978 28° Northeast 376 433 14,000 2,040 Climbing Houston Center
11:50AM 30.1450 -95.1175 38° Northeast 410 472 15,800 1,860 Climbing Houston Center
11:51AM 30.2350 -95.0314 40° Northeast 420 483 17,900 2,100 Climbing Houston Center
11:52AM 30.3247 -94.9394 41° Northeast 430 495 20,200 2,160 Climbing Houston Center
11:53AM 30.4178 -94.8494 40° Northeast 436 502 22,400 2,340 Climbing Houston Center
11:54AM 30.5317 -94.7356 41° Northeast 438 504 25,100 2,220 Climbing Houston Center
11:55AM 30.6236 -94.6431 41° Northeast 440 506 27,100 1,740 Climbing Houston Center
11:56AM 30.7153 -94.5525 40° Northeast 436 502 28,700 1,500 Climbing Houston Center
11:57AM 30.8064 -94.4622 40° Northeast 433 498 30,200 780 Climbing Houston Center
11:59AM 30.9014 -94.3669 41° Northeast 444 511 30,400 780 Climbing Houston Center
12:00PM 31.0219 -94.2444 41° Northeast 471 542 31,900 1,320 Climbing Houston Center
12:01PM 31.1219 -94.1442 41° Northeast 477 549 33,200 1,380 Climbing Houston Center
12:02PM 31.2222 -94.0450 40° Northeast 475 547 34,800 840 Climbing Houston Center
12:03PM 31.3208 -93.9450 41° Northeast 472 543 35,000 60 Climbing Houston Center
12:04PM 31.4225 -93.8447 40° Northeast 477 549 35,000  Level Houston Center
12:05PM 31.5433 -93.7214 41° Northeast 481 554 35,000  Level Houston Center
12:06PM 31.6431 -93.6183 41° Northeast 478 550 35,000  Level Houston Center
12:06PM 31.6611 -93.6061 30° Northeast 466 536 35,000  Level Fort Worth Center
12:07PM 31.7603 -93.5017 42° Northeast 471 542 35,000  Level Fort Worth Center
12:08PM 31.8633 -93.3972 41° Northeast 471 542 35,000  Level Fort Worth Center
12:09PM 31.9603 -93.2975 41° Northeast 471 542 35,000  Level Fort Worth Center
12:10PM 32.0614 -93.1922 41° Northeast 471 542 35,000  Level Fort Worth Center
12:11PM 32.1619 -93.0869 42° Northeast 471 542 35,000  Level Fort Worth Center
12:12PM 32.2608 -92.9867 41° Northeast 471 542 35,000  Level Fort Worth Center
12:13PM 32.3694 -92.8731 41° Northeast 471 542 35,000  Level Fort Worth Center
12:14PM 32.4697 -92.7622 43° Northeast 476 548 35,000  Level Fort Worth Center
12:15PM 32.5703 -92.6558 42° Northeast 476 548 35,000  Level Fort Worth Center
12:16PM 32.6664 -92.5547 42° Northeast 476 548 35,000  Level Fort Worth Center
12:17PM 32.7667 -92.4503 41° Northeast 476 548 35,000  Level Fort Worth Center
12:18PM 32.8650 -92.3486 41° Northeast 476 548 35,000  Level Fort Worth Center
12:20PM 33.0642 -92.1394 41° Northeast 468 539 35,000  Level Memphis Center
12:21PM 33.1639 -92.0325 42° Northeast 474 545 35,000  Level Memphis Center
12:22PM 33.2550 -91.9272 44° Northeast 466 536 35,000  Level Memphis Center
12:23PM 33.3628 -91.8222 39° Northeast 479 551 35,000  Level Memphis Center
12:24PM 33.4578 -91.7167 43° Northeast 479 551 35,000  Level Memphis Center
12:25PM 33.5508 -91.6086 44° Northeast 467 537 35,000  Level Memphis Center
12:26PM 33.6500 -91.5025 42° Northeast 467 537 35,000  Level Memphis Center
12:28PM 33.8394 -91.3000 42° Northeast 477 549 35,000  Level Memphis Center
12:29PM 33.9403 -91.1883 43° Northeast 482 555 35,000  Level Memphis Center
12:30PM 34.0372 -91.0817 42° Northeast 472 543 35,000  Level Memphis Center
12:31PM 34.1378 -90.9744 41° Northeast 472 543 35,000  Level Memphis Center
12:32PM 34.2344 -90.8622 44° Northeast 477 549 35,000  Level Memphis Center
12:33PM 34.3328 -90.7519 43° Northeast 472 543 35,000  Level Memphis Center
12:34PM 34.4394 -90.6342 42° Northeast 478 550 35,000  Level Memphis Center
12:35PM 34.5378 -90.5286 41° Northeast 478 550 35,000  Level Memphis Center
12:36PM 34.6358 -90.4153 44° Northeast 476 548 35,000  Level Memphis Center
12:37PM 34.7339 -90.3067 42° Northeast 476 548 35,000  Level Memphis Center
12:38PM 34.8319 -90.1978 42° Northeast 476 548 35,000  Level Memphis Center
12:39PM 34.9319 -90.0861 42° Northeast 482 555 35,000  Level Memphis Center
12:40PM 35.0150 -89.9844 45° Northeast 477 549 35,000  Level Memphis Center
12:41PM 35.0731 -89.8319 65° Northeast 472 543 35,000  Level Memphis Center
12:42PM 35.1203 -89.6819 69° East 472 543 35,000  Level Memphis Center
12:43PM 35.1756 -89.5161 68° East 478 550 35,000  Level Memphis Center
12:44PM 35.2203 -89.3683 70° East 473 544 35,000  Level Memphis Center
12:45PM 35.2711 -89.2150 68° East 473 544 35,000 -600 Level Memphis Center
12:46PM 35.3197 -89.0694 68° East 473 544 33,800 -1,260 Descending Memphis Center
12:47PM 35.3683 -88.9236 68° East 473 544 32,500 -900 Descending Memphis Center
12:48PM 35.4125 -88.7878 68° East 473 544 32,000 -540 Descending Memphis Center
12:49PM 35.4606 -88.6289 70° East 473 544 31,500 -1,020 Descending Memphis Center
12:50PM 35.5103 -88.4772 68° East 473 544 30,000 -1,500 Descending Memphis Center
12:51PM 35.5600 -88.3231 68° East 478 550 28,600 -1,500 Descending Memphis Center
12:52PM 35.6094 -88.1686 68° East 478 550 27,100 -1,380 Descending Memphis Center
12:53PM 35.6528 -88.0192 70° East 467 537 25,900 -1,500 Descending Memphis Center
12:54PM 35.7019 -87.8644 69° East 479 551 24,100 -2,160 Descending Memphis Center
12:55PM 35.7467 -87.7172 69° East 469 540 21,600 -2,520 Descending Memphis Center
12:56PM 35.7914 -87.5700 69° East 463 533 19,100 -2,400 Descending Memphis Center
12:57PM 35.8406 -87.4378 65° Northeast 432 497 16,900 -2,400 Descending Memphis Center
12:58PM 35.8878 -87.3131 65° Northeast 408 470 14,300 -2,700 Descending Memphis Center
12:59PM 35.9325 -87.1858 67° East 395 455 11,600 -2,160 Descending Memphis Center
01:00PM 35.9794 -87.0661 64° Northeast 390 449 10,000 -1,260 Descending Memphis Center
01:01PM 36.0264 -86.9564 62° Northeast 358 412 9,100 -1,020 Descending Memphis Center
01:02PM 36.0656 -86.8597 63° Northeast 324 373 8,000 -1,320 Descending Memphis Center
01:03PM 36.1153 -86.7831 51° Northeast 299 344 6,500 -1,440 Descending Memphis Center
01:04PM 36.1919 -86.7617 13° North 269 310 5,200 -1,200 Descending Memphis Center
01:05PM 36.2639 -86.7303 19° North 269 310 4,100 -960 Descending Memphis Center
01:06PM 36.2975 -86.6694 56° Northeast 225 259 3,300 -720 Descending Memphis Center
01:07PM 36.2447 -86.6461 160° South 126 145 2,700 -720 Descending Memphis Center
01:08PM 36.1931 -86.6564 189° South 126 145 1,900 -900 Descending Memphis Center
01:09PM 36.1558 -86.6708 197° South 136 157 1,000 -600 Descending Memphis Center
01:10PM 36.1247 -86.6747 186° South 136 157 800 -240 Descending Memphis Center
01:12PM 36.1245 -86.6782 166° South  Level Estimated
01:19PM 36.1245 -86.6782 166° South  Level Estimated
01:20PM 36.1245 -86.6782 166° South  Level Estimated
01:21PM 36.1245 -86.6782 166° South  Level Estimated
01:22PM 36.1245 -86.6782 166° South  Level Estimated
01:23PM 36.1245 -86.6782 166° South  Level Estimated
01:24PM 36.1245 -86.6782 166° South  Level Estimated
01:25PM 36.1245 -86.6782 166° South  Level Estimated
01:26PM 36.1245 -86.6782 166° South  Level Estimated